createdAt,value
2019-02-05T00:06:06.455Z,82.50
2019-02-05T00:10:57.884Z,80.20
2019-02-05T00:15:51.442Z,82.40
2019-02-05T00:20:42.858Z,82.90
2019-02-05T00:25:36.458Z,85.70
2019-02-05T00:30:28.000Z,84.60
2019-02-05T00:35:19.277Z,84.80
2019-02-05T00:40:12.943Z,84.50
2019-02-05T00:45:04.365Z,86.10
2019-02-05T00:49:55.830Z,86.60
2019-02-05T00:54:47.321Z,84.90
2019-02-05T00:59:38.658Z,86.10
2019-02-05T01:04:32.202Z,84.50
2019-02-05T01:09:23.699Z,85.70
2019-02-05T01:14:17.267Z,87.90
2019-02-05T01:19:08.708Z,88.70
2019-02-05T01:24:00.125Z,85.90
2019-02-05T01:28:53.713Z,86.30
2019-02-05T01:33:45.177Z,87.60
2019-02-05T01:38:36.615Z,87.20
2019-02-05T01:43:30.147Z,89.20
2019-02-05T01:48:21.667Z,90.30
2019-02-05T01:53:12.951Z,88.00
2019-02-05T01:58:04.503Z,88.90
2019-02-05T02:02:55.756Z,89.00
2019-02-05T02:07:48.041Z,88.90
2019-02-05T02:12:45.313Z,89.50
2019-02-05T02:17:36.784Z,88.80
2019-02-05T02:22:28.215Z,90.20
2019-02-05T02:27:20.297Z,92.00
2019-02-05T02:32:10.938Z,92.30
2019-02-05T02:37:02.437Z,92.10
2019-02-05T02:41:55.970Z,90.40
2019-02-05T02:46:47.463Z,89.00
2019-02-05T02:51:38.776Z,90.40
2019-02-05T02:56:32.435Z,91.80
2019-02-05T03:01:26.194Z,92.40
2019-02-05T03:06:17.722Z,94.10
2019-02-05T03:11:09.403Z,93.20
2019-02-05T03:16:00.453Z,92.00
2019-02-05T03:20:52.052Z,93.90
2019-02-05T03:25:43.235Z,94.30
2019-02-05T03:30:34.619Z,95.50
2019-02-05T03:35:26.247Z,95.80
2019-02-05T03:40:17.501Z,94.00
2019-02-05T03:45:08.978Z,93.90
2019-02-05T03:50:00.373Z,96.00
2019-02-05T03:54:51.722Z,95.40
2019-02-05T03:59:43.371Z,95.30
2019-02-05T04:04:34.567Z,95.90
2019-02-05T04:09:25.964Z,93.90
2019-02-05T04:14:17.300Z,95.30
2019-02-05T04:19:08.681Z,96.70
2019-02-05T04:24:00.165Z,96.50
2019-02-05T04:28:51.503Z,96.80
2019-02-05T04:33:42.946Z,96.80
2019-02-05T04:38:34.322Z,96.20
2019-02-05T04:43:26.476Z,96.70
2019-02-05T04:48:17.072Z,92.50
2019-02-05T04:53:08.520Z,94.40
2019-02-05T04:58:02.191Z,94.20
2019-02-05T05:02:51.350Z,95.10
2019-02-05T05:07:42.655Z,96.30
2019-02-05T05:12:34.131Z,94.50
2019-02-05T05:17:25.567Z,95.10
2019-02-05T05:22:17.027Z,94.10
2019-02-05T05:27:08.298Z,95.20
2019-02-05T05:31:59.823Z,96.40
2019-02-05T05:36:51.196Z,95.50
2019-02-05T05:41:42.646Z,93.10
2019-02-05T05:46:33.964Z,93.10
2019-02-05T05:51:27.585Z,93.40
2019-02-05T05:56:19.024Z,95.10
2019-02-05T06:01:10.467Z,96.30
2019-02-05T06:06:02.020Z,96.50
2019-02-05T06:10:53.324Z,96.40
2019-02-05T06:15:45.272Z,96.30
2019-02-05T06:20:36.123Z,95.40
2019-02-05T06:25:27.476Z,96.00
2019-02-05T06:35:10.222Z,93.60
2019-02-05T06:40:02.391Z,93.40
2019-02-05T06:44:53.132Z,95.00
2019-02-05T06:49:44.570Z,93.20
2019-02-05T06:54:35.956Z,93.40
2019-02-05T06:59:27.377Z,94.10
2019-02-05T07:04:19.145Z,95.60
2019-02-05T07:09:10.260Z,96.00
2019-02-05T07:14:01.621Z,96.70
2019-02-05T07:18:53.106Z,96.70
2019-02-05T07:23:44.438Z,97.80
2019-02-05T07:28:35.844Z,97.40
2019-02-05T07:33:27.194Z,97.10
2019-02-05T07:38:18.800Z,95.90
2019-02-05T07:43:10.104Z,94.70
2019-02-05T07:48:01.771Z,95.00
2019-02-05T07:52:53.009Z,95.80
2019-02-05T07:57:44.389Z,94.70
2019-02-05T08:02:35.683Z,94.50
2019-02-05T08:07:27.110Z,94.60
2019-02-05T08:12:18.593Z,95.20
2019-02-05T08:17:12.219Z,97.70
2019-02-05T08:22:04.357Z,96.50
2019-02-05T08:26:55.120Z,97.20
2019-02-05T08:31:46.466Z,93.00
2019-02-05T08:36:37.930Z,92.80
2019-02-05T08:41:29.351Z,90.20
2019-02-05T08:46:21.282Z,89.30
2019-02-05T08:51:14.254Z,88.50
2019-02-05T08:56:05.817Z,89.10
2019-02-05T09:00:59.379Z,84.10
2019-02-05T09:05:50.930Z,77.50
2019-02-05T09:10:42.916Z,79.20
2019-02-05T09:15:33.740Z,79.10
2019-02-05T09:20:25.087Z,72.50
2019-02-05T09:25:16.546Z,72.20
2019-02-05T09:30:07.901Z,75.00
2019-02-05T09:35:00.041Z,72.50
2019-02-05T09:39:50.723Z,72.40
2019-02-05T09:44:42.185Z,71.10
2019-02-05T09:49:33.509Z,73.70
2019-02-05T09:54:27.096Z,70.50
2019-02-05T09:59:19.186Z,61.80
2019-02-05T10:04:12.173Z,67.50
2019-02-05T10:09:03.679Z,69.50
2019-02-05T10:13:55.191Z,64.50
2019-02-05T10:18:46.650Z,69.60
2019-02-05T10:23:40.038Z,68.00
2019-02-05T10:28:31.516Z,69.20
2019-02-05T10:33:25.104Z,69.90
2019-02-05T10:38:16.612Z,62.50
2019-02-05T10:43:08.032Z,59.20
2019-02-05T10:57:44.448Z,51.80
2019-02-05T11:27:01.843Z,52.00
2019-02-05T11:31:53.991Z,40.10
2019-02-05T11:36:44.662Z,38.90
2019-02-05T11:46:27.438Z,38.80
2019-02-05T12:05:53.119Z,39.90
2019-02-05T12:10:44.518Z,34.10
2019-02-05T12:44:51.572Z,30.70
2019-02-05T12:49:44.550Z,27.40
2019-02-05T13:04:18.968Z,29.30
2019-02-05T13:09:10.381Z,18.30
2019-02-05T13:14:01.661Z,21.80
2019-02-05T13:18:52.976Z,18.80
2019-02-05T13:23:44.423Z,24.20
2019-02-05T13:33:27.215Z,21.70
2019-02-05T13:48:01.978Z,19.10
2019-02-05T13:52:52.745Z,18.70
2019-02-05T13:57:44.134Z,19.20
2019-02-05T14:07:32.084Z,21.20
2019-02-05T14:12:23.086Z,25.10
2019-02-05T14:17:14.253Z,20.80
2019-02-05T14:22:05.847Z,22.00
2019-02-05T14:26:57.109Z,20.00
2019-02-05T14:31:48.464Z,20.00
2019-02-05T14:36:39.848Z,21.80
2019-02-05T14:41:33.426Z,26.10
2019-02-05T14:46:24.888Z,23.00
2019-02-05T14:51:23.062Z,24.40
2019-02-05T14:56:14.477Z,24.10
2019-02-05T15:01:08.179Z,21.20
2019-02-05T15:05:59.691Z,21.70
2019-02-05T15:10:51.024Z,22.60
2019-02-05T15:15:42.425Z,23.10
2019-02-05T15:35:08.025Z,24.50
2019-02-05T15:44:50.930Z,23.00
2019-02-05T15:56:18.452Z,25.10
2019-02-05T16:01:09.744Z,27.00
2019-02-05T16:06:01.228Z,27.60
2019-02-05T16:10:52.552Z,31.10
2019-02-05T16:15:44.508Z,31.50
2019-02-05T16:30:20.575Z,35.70
2019-02-05T16:35:11.939Z,36.90
2019-02-05T16:40:03.423Z,37.50
2019-02-05T16:44:54.721Z,40.40
2019-02-05T16:49:46.134Z,41.00
2019-02-05T16:54:37.569Z,42.60
2019-02-05T16:59:28.835Z,45.70
2019-02-05T17:04:20.324Z,48.20
2019-02-05T17:09:11.677Z,51.60
2019-02-05T17:14:05.251Z,50.80
2019-02-05T17:18:56.701Z,50.30
2019-02-05T17:23:48.130Z,54.70
2019-02-05T17:28:40.284Z,55.90
2019-02-05T17:33:30.868Z,56.20
2019-02-05T17:38:22.267Z,61.30
2019-02-05T17:43:13.674Z,64.20
2019-02-05T17:48:05.109Z,70.70
2019-02-05T17:52:56.449Z,68.50
2019-02-05T17:57:47.864Z,80.60
2019-02-05T18:02:39.168Z,84.10
2019-02-05T18:07:30.561Z,85.20
2019-02-05T18:12:22.516Z,84.20
2019-02-05T18:17:24.729Z,87.80
2019-02-05T18:22:16.161Z,85.30
2019-02-05T18:27:07.556Z,88.00
2019-02-05T18:31:58.954Z,88.60
2019-02-05T18:36:50.354Z,89.20
2019-02-05T18:41:43.931Z,90.00
2019-02-05T18:46:35.412Z,89.80
2019-02-05T18:51:27.339Z,90.70
2019-02-05T18:56:18.347Z,91.40
2019-02-05T19:01:09.540Z,92.50
2019-02-05T19:06:00.972Z,91.00
2019-02-05T19:10:52.280Z,91.60
2019-02-05T19:15:43.795Z,93.40
2019-02-05T19:20:35.119Z,93.80
2019-02-05T19:25:26.832Z,94.20
2019-02-05T19:30:17.830Z,93.40
2019-02-05T19:35:09.865Z,95.60
2019-02-05T19:40:00.740Z,96.00
2019-02-05T19:44:52.069Z,95.50
2019-02-05T19:49:43.348Z,92.20
2019-02-05T19:54:34.962Z,92.70
2019-02-05T19:59:26.187Z,95.10
2019-02-05T20:04:19.814Z,93.10
2019-02-05T20:09:11.361Z,93.80
2019-02-05T20:14:02.717Z,95.80
2019-02-05T20:18:54.105Z,95.50
2019-02-05T20:23:45.391Z,94.50
2019-02-05T20:28:36.848Z,92.00
2019-02-05T20:33:28.210Z,93.90
2019-02-05T20:38:19.629Z,93.10
2019-02-05T20:43:10.922Z,96.10
2019-02-05T20:48:02.431Z,96.50
2019-02-05T20:52:53.833Z,97.20
2019-02-05T20:57:45.470Z,94.60
2019-02-05T21:02:36.516Z,95.10
2019-02-05T21:07:27.923Z,94.60
2019-02-05T21:12:19.377Z,96.50
2019-02-05T21:17:10.685Z,95.60
2019-02-05T21:22:04.633Z,94.70
2019-02-05T21:26:56.109Z,95.30
2019-02-05T21:31:47.557Z,94.20
2019-02-05T21:36:39.663Z,95.00
2019-02-05T21:41:30.295Z,93.40
2019-02-05T21:46:21.719Z,96.80
2019-02-05T21:51:13.131Z,98.10
2019-02-05T21:56:04.494Z,93.10
2019-02-05T22:00:56.636Z,96.10
2019-02-05T22:05:47.335Z,93.30
2019-02-05T22:10:38.675Z,94.20
2019-02-05T22:15:30.104Z,94.10
2019-02-05T22:20:21.509Z,94.60
2019-02-05T22:25:12.857Z,96.00
2019-02-05T22:30:05.011Z,96.00
2019-02-05T22:34:55.647Z,94.30
2019-02-05T22:39:47.096Z,95.20
2019-02-05T22:44:38.483Z,95.60
2019-02-05T22:49:29.934Z,95.40
2019-02-05T22:54:23.492Z,94.90
2019-02-05T22:59:15.073Z,92.80
2019-02-05T23:04:06.843Z,94.60
2019-02-05T23:08:57.663Z,95.20
2019-02-05T23:13:51.340Z,96.70
2019-02-05T23:18:42.734Z,97.30
2019-02-05T23:23:34.151Z,97.10
2019-02-05T23:28:26.110Z,98.00
2019-02-05T23:33:16.966Z,97.80
2019-02-05T23:38:08.340Z,97.00
2019-02-05T23:42:59.768Z,96.90
2019-02-05T23:47:51.133Z,96.40
2019-02-05T23:52:42.595Z,96.80
2019-02-05T23:57:33.925Z,96.10
